createdAt,value
2019-03-17T00:03:39.656Z,10.50
2019-03-17T00:08:43.645Z,10.50
2019-03-17T00:13:47.591Z,10.30
2019-03-17T00:18:51.894Z,10.00
2019-03-17T00:23:55.609Z,9.80
2019-03-17T00:28:59.318Z,9.70
2019-03-17T00:34:03.055Z,9.40
2019-03-17T00:39:06.933Z,9.30
2019-03-17T00:44:10.701Z,9.10
2019-03-17T00:49:14.430Z,9.10
2019-03-17T00:54:18.212Z,9.20
2019-03-17T00:59:21.984Z,9.10
2019-03-17T01:04:25.673Z,8.80
2019-03-17T01:09:29.357Z,8.50
2019-03-17T01:14:33.409Z,8.50
2019-03-17T01:19:37.076Z,8.50
2019-03-17T01:24:41.005Z,8.40
2019-03-17T01:29:44.677Z,8.40
2019-03-17T01:34:48.372Z,8.30
2019-03-17T01:39:52.045Z,8.10
2019-03-17T01:44:55.697Z,7.90
2019-03-17T01:49:59.625Z,7.90
2019-03-17T01:55:03.497Z,7.80
2019-03-17T02:00:07.862Z,7.50
2019-03-17T02:05:21.580Z,7.50
2019-03-17T02:10:17.205Z,7.40
2019-03-17T02:15:20.853Z,7.20
2019-03-17T02:20:24.525Z,7.00
2019-03-17T02:25:28.190Z,6.90
2019-03-17T02:30:31.891Z,6.90
2019-03-17T02:35:39.540Z,6.80
2019-03-17T02:40:40.922Z,6.80
2019-03-17T02:45:44.561Z,6.80
2019-03-17T02:50:48.218Z,6.70
2019-03-17T02:55:51.859Z,6.70
2019-03-17T03:00:55.507Z,6.60
2019-03-17T03:05:59.171Z,6.60
2019-03-17T03:11:02.803Z,6.60
2019-03-17T03:16:06.498Z,6.60
2019-03-17T03:21:10.184Z,6.70
2019-03-17T03:26:14.161Z,6.70
2019-03-17T03:31:18.151Z,6.80
2019-03-17T03:36:22.147Z,6.80
2019-03-17T03:41:26.145Z,6.70
2019-03-17T03:46:30.384Z,6.70
2019-03-17T03:51:34.044Z,6.70
2019-03-17T03:56:37.691Z,6.60
2019-03-17T04:01:41.652Z,6.60
2019-03-17T04:06:45.295Z,6.70
2019-03-17T04:11:48.938Z,6.70
2019-03-17T04:16:52.712Z,6.80
2019-03-17T04:21:56.385Z,6.90
2019-03-17T04:27:00.114Z,6.90
2019-03-17T04:32:03.861Z,6.80
2019-03-17T04:37:07.511Z,6.80
2019-03-17T04:42:11.199Z,6.70
2019-03-17T04:47:14.941Z,6.70
2019-03-17T04:52:18.696Z,6.60
2019-03-17T04:57:22.361Z,6.60
2019-03-17T05:02:26.015Z,6.50
2019-03-17T05:07:30.095Z,6.60
2019-03-17T05:12:34.028Z,6.60
2019-03-17T05:17:37.705Z,6.60
2019-03-17T05:22:41.371Z,6.60
2019-03-17T05:27:45.033Z,6.70
2019-03-17T05:32:48.745Z,6.80
2019-03-17T05:37:52.705Z,6.90
2019-03-17T05:42:56.674Z,7.10
2019-03-17T05:48:00.886Z,7.10
2019-03-17T05:53:04.633Z,7.20
2019-03-17T05:58:08.318Z,7.40
2019-03-17T06:03:11.961Z,7.50
2019-03-17T06:08:15.934Z,7.60
2019-03-17T06:13:19.672Z,7.70
2019-03-17T06:18:23.335Z,7.80
2019-03-17T06:23:27.002Z,7.90
2019-03-17T06:28:30.746Z,8.10
2019-03-17T06:33:34.417Z,8.10
2019-03-17T06:38:38.072Z,8.30
2019-03-17T06:43:41.729Z,8.40
2019-03-17T06:48:45.450Z,8.60
2019-03-17T06:53:56.363Z,8.70
2019-03-17T06:58:55.154Z,8.90
2019-03-17T07:03:59.086Z,9.20
2019-03-17T07:09:04.138Z,9.50
2019-03-17T07:14:07.798Z,9.70
2019-03-17T07:19:11.761Z,9.90
2019-03-17T07:24:15.422Z,10.20
2019-03-17T07:29:56.667Z,10.40
2019-03-17T07:35:00.848Z,10.60
2019-03-17T07:40:05.058Z,10.80
2019-03-17T07:45:09.213Z,11.00
2019-03-17T07:50:13.238Z,11.10
2019-03-17T07:55:16.906Z,11.40
2019-03-17T08:00:31.334Z,11.70
2019-03-17T08:05:26.270Z,12.00
2019-03-17T08:10:30.014Z,14.10
2019-03-17T08:15:34.015Z,17.30
2019-03-17T08:20:37.681Z,20.50
2019-03-17T08:25:41.647Z,21.80
2019-03-17T08:30:53.014Z,24.30
2019-03-17T08:35:50.741Z,26.40
2019-03-17T08:40:55.042Z,28.90
2019-03-17T08:45:58.711Z,30.40
2019-03-17T08:51:02.378Z,31.60
2019-03-17T08:56:06.166Z,32.80
2019-03-17T09:01:09.829Z,32.10
2019-03-17T09:06:14.014Z,32.20
2019-03-17T09:11:17.663Z,32.20
2019-03-17T09:16:21.795Z,31.80
2019-03-17T09:21:25.482Z,30.70
2019-03-17T09:26:29.140Z,29.40
2019-03-17T09:31:33.065Z,28.10
2019-03-17T09:36:36.729Z,28.50
2019-03-17T09:41:40.421Z,27.80
2019-03-17T09:46:44.090Z,28.20
2019-03-17T09:51:47.796Z,29.30
2019-03-17T09:56:51.594Z,28.30
2019-03-17T10:01:55.267Z,26.60
2019-03-17T10:06:59.248Z,28.20
2019-03-17T10:12:02.947Z,28.30
2019-03-17T10:17:06.698Z,28.80
2019-03-17T10:22:10.363Z,31.30
2019-03-17T10:27:14.050Z,30.60
2019-03-17T10:32:17.711Z,29.00
2019-03-17T10:37:21.424Z,29.30
2019-03-17T10:42:25.373Z,28.10
2019-03-17T10:47:29.060Z,27.70
2019-03-17T10:52:32.744Z,28.10
2019-03-17T10:57:36.402Z,28.70
2019-03-17T11:02:40.077Z,28.40
2019-03-17T11:07:43.983Z,28.50
2019-03-17T11:12:48.010Z,29.10
2019-03-17T11:17:51.673Z,29.30
2019-03-17T11:22:55.385Z,29.20
2019-03-17T11:27:59.076Z,28.80
2019-03-17T11:33:03.049Z,30.40
2019-03-17T11:38:07.018Z,30.50
2019-03-17T11:43:10.911Z,30.30
2019-03-17T11:48:14.869Z,30.20
2019-03-17T11:53:18.581Z,28.60
2019-03-17T11:58:22.249Z,27.30
2019-03-17T12:03:25.984Z,28.40
2019-03-17T12:08:29.704Z,29.70
2019-03-17T12:13:33.426Z,28.70
2019-03-17T12:18:37.106Z,28.10
2019-03-17T12:23:40.786Z,27.30
2019-03-17T12:28:44.782Z,28.60
2019-03-17T12:33:48.433Z,28.20
2019-03-17T12:38:52.088Z,26.60
2019-03-17T12:43:56.079Z,27.10
2019-03-17T12:49:00.296Z,28.10
2019-03-17T12:54:04.035Z,27.40
2019-03-17T12:59:07.798Z,27.90
2019-03-17T13:04:14.493Z,26.80
2019-03-17T13:09:18.479Z,27.20
2019-03-17T13:14:22.153Z,25.20
2019-03-17T13:19:26.318Z,23.40
2019-03-17T13:24:30.103Z,23.80
2019-03-17T13:29:33.745Z,24.90
2019-03-17T13:34:37.768Z,23.60
2019-03-17T13:39:41.459Z,23.40
2019-03-17T13:44:45.761Z,21.30
2019-03-17T13:49:49.430Z,20.10
2019-03-17T13:54:53.111Z,22.60
2019-03-17T13:59:57.073Z,24.40
2019-03-17T14:05:00.826Z,24.20
2019-03-17T14:10:13.685Z,23.50
2019-03-17T14:15:12.269Z,23.10
2019-03-17T14:20:17.021Z,23.50
2019-03-17T14:25:23.243Z,23.90
2019-03-17T14:30:27.946Z,24.10
2019-03-17T14:35:31.672Z,24.10
2019-03-17T14:40:35.642Z,22.30
2019-03-17T14:45:39.375Z,21.20
2019-03-17T14:50:43.322Z,21.70
2019-03-17T14:55:47.314Z,22.00
2019-03-17T15:00:51.196Z,21.70
2019-03-17T15:05:55.013Z,21.30
2019-03-17T15:11:05.962Z,20.20
2019-03-17T15:16:08.765Z,19.10
2019-03-17T15:21:12.492Z,18.00
2019-03-17T15:26:16.224Z,16.30
2019-03-17T15:31:19.869Z,15.50
2019-03-17T15:36:24.084Z,14.90
2019-03-17T15:41:28.101Z,14.10
2019-03-17T15:46:31.847Z,13.40
2019-03-17T15:51:38.705Z,13.10
2019-03-17T15:56:42.394Z,12.80
2019-03-17T16:01:46.082Z,12.20
2019-03-17T16:06:49.801Z,11.60
2019-03-17T16:11:53.485Z,11.10
2019-03-17T16:16:57.439Z,10.50
2019-03-17T16:22:01.368Z,10.20
2019-03-17T16:27:05.033Z,10.10
2019-03-17T16:32:08.685Z,9.80
2019-03-17T16:37:12.434Z,9.50
2019-03-17T16:42:16.060Z,9.50
2019-03-17T16:47:19.752Z,9.50
2019-03-17T16:52:23.729Z,9.50
2019-03-17T16:57:27.401Z,9.40
2019-03-17T17:02:31.399Z,9.50
2019-03-17T17:07:35.078Z,9.50
2019-03-17T17:12:38.834Z,9.70
2019-03-17T17:17:42.512Z,9.50
2019-03-17T17:22:46.322Z,9.40
2019-03-17T17:27:49.998Z,9.40
2019-03-17T17:32:53.681Z,9.20
2019-03-17T17:37:57.650Z,9.20
2019-03-17T17:43:01.675Z,9.20
2019-03-17T17:48:05.415Z,9.10
2019-03-17T17:53:09.431Z,9.10
2019-03-17T17:58:13.168Z,9.10
2019-03-17T18:03:16.856Z,9.20
2019-03-17T18:08:20.590Z,9.10
2019-03-17T18:13:24.557Z,9.00
2019-03-17T18:18:28.715Z,9.00
2019-03-17T18:23:32.397Z,8.90
2019-03-17T18:28:42.437Z,9.00
2019-03-17T18:34:05.368Z,9.10
2019-03-17T18:39:09.193Z,9.20
2019-03-17T18:44:13.669Z,9.20
2019-03-17T18:49:17.446Z,9.00
2019-03-17T18:54:22.031Z,9.10
2019-03-17T18:59:25.781Z,9.30
2019-03-17T19:04:29.437Z,9.10
2019-03-17T19:09:33.133Z,9.00
2019-03-17T19:14:37.094Z,9.10
2019-03-17T19:19:41.154Z,8.90
2019-03-17T19:24:45.170Z,8.90
2019-03-17T19:29:48.902Z,8.90
2019-03-17T19:34:52.647Z,8.90
2019-03-17T19:39:56.328Z,8.90
2019-03-17T19:45:00.269Z,8.90
2019-03-17T19:50:04.406Z,8.70
2019-03-17T19:55:08.209Z,8.80
2019-03-17T20:00:14.232Z,8.90
2019-03-17T20:05:18.491Z,8.80
2019-03-17T20:10:22.813Z,8.90
2019-03-17T20:15:26.798Z,8.90
2019-03-17T20:20:30.712Z,8.80
2019-03-17T20:25:34.374Z,8.70
2019-03-17T20:30:38.046Z,8.80
2019-03-17T20:35:41.735Z,8.70
2019-03-17T20:40:45.386Z,8.80
2019-03-17T20:45:49.083Z,8.70
2019-03-17T20:50:52.794Z,8.70
2019-03-17T20:55:56.450Z,8.60
2019-03-17T21:01:00.261Z,8.60
2019-03-17T21:06:04.386Z,8.60
2019-03-17T21:11:08.066Z,8.70
2019-03-17T21:16:12.041Z,8.60
2019-03-17T21:21:16.053Z,8.60
2019-03-17T21:26:19.745Z,8.60
2019-03-17T21:31:23.392Z,8.70
2019-03-17T21:36:27.343Z,8.60
2019-03-17T21:41:31.026Z,8.70
2019-03-17T21:46:35.130Z,8.70
2019-03-17T21:51:38.822Z,8.70
2019-03-17T21:56:42.732Z,8.70
2019-03-17T22:01:46.978Z,8.40
2019-03-17T22:06:50.696Z,8.40
2019-03-17T22:11:54.415Z,8.40
2019-03-17T22:16:58.104Z,8.50
2019-03-17T22:22:01.762Z,8.50
2019-03-17T22:27:05.430Z,8.40
2019-03-17T22:32:09.619Z,8.50
2019-03-17T22:37:13.581Z,8.20
2019-03-17T22:42:17.253Z,8.20
2019-03-17T22:47:21.178Z,8.20
2019-03-17T22:52:24.854Z,8.10
2019-03-17T22:57:29.206Z,8.20
2019-03-17T23:02:33.197Z,8.20
2019-03-17T23:07:37.345Z,8.10
2019-03-17T23:12:41.090Z,8.10
2019-03-17T23:17:45.507Z,8.00
2019-03-17T23:22:49.151Z,8.00
2019-03-17T23:27:52.829Z,7.90
2019-03-17T23:32:56.769Z,8.00
2019-03-17T23:38:00.426Z,8.20
2019-03-17T23:43:04.101Z,8.20
2019-03-17T23:48:07.788Z,8.20
2019-03-17T23:53:11.866Z,8.10
2019-03-17T23:58:15.546Z,8.20
